Amit David

Scout - Maccabi Haifa
10 Apr 2029
Dienstag
Verarbeitung

Persönlichkeit

Anpassungsfähigkeit (20) Ehrgeiz (7) Kontroverse (2) Loyalität (13) Druck (19) Professionalität (12) Fairness (8) Temperament (17)

Profil

Trainerstil Demokratisch
Lizenz Kontinentale C
Entschlossenheit 4
Menschenführung 9
Motivation 10
Disziplin 10
Arbeitszufriedenheit
100%
Ermüdung
0%
Rolle Scout
Gehalt 26.3K p/W
Vertrag 14.03.2030

Leistung

Verhalten Gut
Trainingseffektivität
51%
Spielerentwicklung
55%
Verletzungsprävention
25%
Taktische Umsetzung
50%

Aktuell beobachtet

136
Spieler Verein Status Fähigkeit Vertrauen Beobachtet Zuletzt beobachtet Letzte Stimme
Filip Reshane Sarpsborg 08 Aktiv 108 / 109 40% 2 31.01.2029 -
Percy Zungu Platinum Stars Aktiv 92 / 86 40% 2 30.01.2029 -
José Capponi Stevenage Aktiv 83 / 101 40% 1 30.01.2029 -
Emile Dortley Platinum Stars Aktiv 89 / 92 40% 1 30.01.2029 -
Roey Magor Maccabi Tel Aviv Aktiv 97 / 107 83% 1 29.01.2029 Befürworten
Manuel Verre Pro Patria Aktiv 101 / 97 40% 1 24.01.2029 -
Isaiah Alakiu Persebaya Aktiv 85 / 91 40% 1 24.01.2029 -
Tiago Gordillo San Miguel Aktiv 85 / 97 40% 4 23.01.2029 -
Myles Dayman Stevenage Aktiv 95 / 106 40% 2 23.01.2029 -
Martín Jiménez Universidad de Concepcion Aktiv 103 / 108 40% 5 22.01.2029 -
Amit Lemkin Hapoel Tel Aviv Aktiv 104 / 111 83% 1 22.01.2029 Befürworten
Loui Whitehead Tranmere Rovers Aktiv 83 / 85 40% 1 22.01.2029 -
Alvin Ayman Gor Mahia Aktiv 93 / 96 40% 4 21.01.2029 -
Juan Pablo Hernández Cerro Largo Aktiv 103 / 104 40% 1 21.01.2029 -
Alfie Cresswell Chesterfield Aktiv 113 / 123 40% 1 21.01.2029 -
Bernardo Lima Porto Aktiv 119 / 136 40% 5 20.01.2029 -
Rafael Mota Sporting CP Aktiv 113 / 119 40% 3 18.01.2029 -
Saar Elkayam Hapoel Haifa Aktiv 106 / 99 40% 3 18.01.2029 Beobachten
Jonathan Whiteley Harrogate Town Aktiv 85 / 104 40% 1 18.01.2029 -
Azizbek To'lqinbekov Sogdiana Aktiv 105 / 107 40% 3 17.01.2029 -
Matvey Kuznetsov Spartak Moscow Aktiv 87 / 103 40% 2 17.01.2029 -
Henrik Skretteberg Sandefjord Aktiv 87 / 99 40% 1 17.01.2029 -
Miguel Figueiredo Benfica Aktiv 125 / 123 40% 5 15.01.2029 -
Lewi Richards Walsall Aktiv 103 / 118 40% 2 15.01.2029 -
Djibril Coulibaly Paris FC Aktiv 125 / 126 40% 2 14.01.2029 -
Fillip Jenssen Riise Stabaek Aktiv 100 / 117 40% 1 14.01.2029 -
Jack Shorrock Port Vale Aktiv 109 / 113 40% 6 11.01.2029 -
Nejc Viher NK Maribor Aktiv 128 / 122 40% 1 11.01.2029 -
Ivan Borges Defensores Aktiv 88 / 91 40% 4 10.01.2029 -
Aytor Herrera Llaneros Aktiv 90 / 96 40% 1 10.01.2029 -
Jacob Hall Latina Aktiv 95 / 96 40% 2 09.01.2029 -
Pascal Mozie Legia Aktiv 103 / 121 40% 1 07.01.2029 -
Jacob Watson Doncaster Rovers Aktiv 89 / 105 40% 1 04.01.2029 -
Sulyman Krubally Burton Albion Aktiv 89 / 92 40% 1 03.01.2029 -
Tobiáš Pališčák AS Trencin Aktiv 106 / 116 40% 1 02.01.2029 -
Saba Kharebashvili Besiktas Aktiv 140 / 142 40% 1 02.01.2029 -
Braian Cabral Madryn Aktiv 93 / 96 40% 1 30.08.2028 -
Jim Thwaites Manchester United Aktiv 119 / 130 40% 1 28.08.2028 -
Lautaro Ávila Racing Aktiv 98 / 100 40% 1 28.08.2028 -
Ramiro Jara Racing Aktiv 86 / 94 40% 2 21.08.2028 -
Ahmed Khaled Paralimni Aktiv 103 / 115 40% 1 21.08.2028 -
Quinn MacNicol Auckland FC Aktiv 107 / 120 40% 1 21.08.2028 -
Anderson Acevedo Patriotas Aktiv 93 / 95 40% 1 17.08.2028 -
Riley Foxe Sydney FC Aktiv 96 / 98 40% 1 17.08.2028 -
Emiliano Bértoli Patronato Aktiv 91 / 103 40% 1 15.08.2028 -
Otar Mchedlidze Tskhinvali Aktiv 88 / 96 40% 1 15.08.2028 -
Diego Cheuquepal Racing Aktiv 102 / 113 40% 2 14.08.2028 -
Juan Camilo Córdoba Deportivo Pereira Aktiv 92 / 99 40% 1 14.08.2028 -
Konta Ismaily Aktiv 110 / 122 40% 1 14.08.2028 -
Agustín Medina River Plate Aktiv 122 / 124 40% 4 17.07.2028 -
Adham Farid Ismaily Aktiv 105 / 102 40% 1 17.07.2028 -
Joe Emery Salford City Aktiv 99 / 93 40% 2 12.07.2028 -
Callum Tripp Milton Keynes Dons Aktiv 100 / 90 40% 1 12.07.2028 -
Ayomide Abatan Jihlava Aktiv 87 / 95 40% 1 12.07.2028 -
Gideon Manaseh Ikorodu City Aktiv 93 / 104 40% 3 11.07.2028 -
Frederik Damkjer Viborg Aktiv 98 / 104 40% 1 11.07.2028 -
Owen Foye Swindon Town Aktiv 86 / 101 40% 1 03.07.2028 -
Adem Avdić TSC Aktiv 115 / 107 40% 3 21.06.2028 -
Jamie Wähling Marsaxlokk Aktiv 92 / 100 40% 3 20.06.2028 -
Federico Nardin Alcione Milano Aktiv 96 / 115 40% 3 20.06.2028 -
Mattia Mannini Juve Stabia Aktiv 116 / 128 40% 2 20.06.2028 -
Jenson Jones Penafiel Aktiv 104 / 112 40% 2 19.06.2028 -
Kaiden Moore ES Mostaganem Aktiv 93 / 99 40% 1 19.06.2028 -
Denys Smetana Metalurh Zaporizhzhia Aktiv 100 / 102 40% 1 18.06.2028 -
Ronwen Mabunda Platinum Stars Aktiv 86 / 83 40% 3 17.06.2028 -
David Damboama El-Kanemi Warriors Aktiv 81 / 93 40% 2 16.06.2028 -
Pape Cabral Monaco Aktiv 123 / 118 40% 1 16.06.2028 -
Daniel Banjaqui Benfica Aktiv 124 / 135 40% 6 14.06.2028 -
Mohamed Bendary ENPPI Aktiv 88 / 95 40% 1 12.06.2028 -
Mattia Puzone Siracusa Aktiv 104 / 111 40% 1 11.06.2028 -
Noa Mikić HNK Gorica Aktiv 121 / 113 40% 1 11.06.2028 -
Aymeris Ligeon Vizela Aktiv 87 / 99 40% 1 06.06.2028 -
João Brito Porto Aktiv 100 / 109 40% 1 05.06.2028 -
Filipe Sousa Porto Aktiv 108 / 114 40% 2 03.06.2028 -
Denis Grigorjev Arsenal Tula Aktiv 92 / 101 40% 1 02.06.2028 -
Emiliano Zambrano Gimnasia y Esgrima Aktiv 93 / 93 40% 3 31.01.2028 -
Matheus Davó Maccabi Netanya Aktiv 126 / 119 79% 1 31.01.2028 Befürworten
Kutlwano Letlhaku Ajax Cape Town Aktiv 120 / 125 40% 1 31.01.2028 -
Honest Ahanor Udinese Aktiv 137 / 139 40% 1 27.01.2028 -
Romuald Sawadogo Hapoel Raanana Aktiv 103 / 104 40% 3 25.01.2028 -
Jan Bürger Burton Albion Aktiv 114 / 125 40% 2 25.01.2028 -
Nahuel Leivas Montevideo City Torque Aktiv 106 / 114 40% 1 23.01.2028 -
Bradel Kiwa Monaco Aktiv 128 / 121 40% 2 10.01.2028 -
Hian Rincón Once Caldas Aktiv 91 / 97 40% 1 10.01.2028 -
Martim Cunha Porto Aktiv 114 / 115 40% 4 07.01.2028 -
Juan Manuel Villalba Estudiantes Aktiv 120 / 124 40% 2 07.01.2028 -
Matvey Bardachev Zenit Aktiv 105 / 120 40% 1 06.01.2028 -
Juan Giménez Rosario Central Aktiv 120 / 124 40% 1 04.01.2028 -
Makar Kuznetsov Zugdidi Aktiv 83 / 75 40% 1 04.01.2028 -
Jair Collahuazo Kudrivka Aktiv 109 / 103 40% 1 04.01.2028 -
Amos Nondi Bali United Aktiv 103 / 113 40% 1 03.01.2028 -
Leonel Pollacchi San Telmo Aktiv 116 / 118 40% 1 03.01.2028 -
Malte Hallin GIF Sundsvall Aktiv 89 / 103 40% 1 30.08.2027 -
Caleb Yirenkyi Coventry City Aktiv 138 / 145 40% 1 30.08.2027 -
Victor Ehibe Barau Aktiv 82 / 87 40% 1 30.08.2027 -
Matías Canedo Rampla Juniors Aktiv 85 / 96 40% 1 23.08.2027 -
Tiziano Cabrera Central Norte Aktiv 84 / 90 40% 3 19.08.2027 -
Francisco Burgio Oriental Aktiv 81 / 89 40% 1 19.08.2027 -
Mateo Ostachi Alvarado Aktiv 90 / 95 40% 3 18.08.2027 -
Lucas Pyziak Vélez Aktiv 105 / 106 40% 1 18.08.2027 -
Timofey Tkachev Baranovichi Aktiv 82 / 89 40% 1 17.08.2027 -
Maren Kefas Plateau United Aktiv 86 / 90 40% 3 16.08.2027 -
Simón Bodnar River Plate Aktiv 114 / 126 40% 1 16.08.2027 -
Dennis Konney US Bougouba Aktiv 75 / 98 40% 2 15.08.2027 -
Yaroslav Matyukhin Alashkert Aktiv 106 / 107 40% 1 15.08.2027 -
Alin Kumer Čelik Genoa Aktiv 103 / 96 40% 1 14.08.2027 -
Nicolás Ferreira Artigas Aktiv 76 / 92 40% 1 13.08.2027 -
Benjamin Merba Foullah Edifice Aktiv 78 / 73 40% 1 13.08.2027 -
Matías Gómez Independiente Aktiv 108 / 118 40% 1 11.08.2027 -
Daniel Awuni Aduana Stars Aktiv 95 / 97 40% 3 09.08.2027 -
Mirko Bruno Vélez Aktiv 104 / 115 40% 1 09.08.2027 -
Nathan Doualla Canon Yaounde Aktiv 93 / 91 40% 4 06.08.2027 -
Román Barrios Patronato Aktiv 89 / 94 40% 2 04.08.2027 -
Iwan Henstra Cambuur Aktiv 92 / 112 40% 7 31.07.2027 -
Federico Coletta Benfica Aktiv 104 / 115 40% 1 31.07.2027 -
Ryunosuke Sato Valencia Aktiv 125 / 127 40% 4 30.07.2027 -
Asanele Bonani Chippa United Aktiv 100 / 92 40% 3 26.07.2027 -
Chris Martínez Atletico Venezuela Aktiv 82 / 88 40% 1 26.07.2027 -
Lautaro Millán Independiente Aktiv 120 / 133 40% 5 25.07.2027 -
Joel Medina Osasuna Aktiv 114 / 133 40% 3 23.07.2027 -
Miguel Di Pizio Western Sydney Wanderers Aktiv 108 / 110 40% 4 15.07.2027 -
Paulo Cardoso Sporting CP Aktiv 102 / 97 40% 1 13.07.2027 -
Yegor Gulyaev Chaika Aktiv 78 / 93 40% 2 12.07.2027 -
Luca Maiorano Pro Patria Aktiv 98 / 109 40% 3 08.07.2027 -
Leonel Jaime River Plate Aktiv 113 / 117 40% 3 08.07.2027 -
Adam Wierzbicki Khimik Aktiv 88 / 94 40% 2 06.07.2027 -
Mattia Della Rocca Vicenza Aktiv 98 / 96 40% 1 29.06.2027 -
Noah Maieroni Brisbane Roar Aktiv 100 / 109 40% 1 26.06.2027 -
Molemo Seemela Zvezda Aktiv 84 / 69 40% 1 26.06.2027 -
Nupe Godstime Bayelsa United Aktiv 79 / 95 40% 1 22.06.2027 -
Nikita Posmashny Chaika Aktiv 83 / 80 40% 1 21.06.2027 -
Mads Abrahamsen Druzhba Aktiv 84 / 103 40% 1 19.06.2027 -
Borna Knezović Casarano Aktiv 110 / 116 40% 1 17.06.2027 -
Alexis Fretes Libertad Aktiv 107 / 110 40% 1 07.06.2027 -
Matías Pellegrini Vélez Aktiv 122 / 122 40% 1 17.08.2026 -
Manfred Fischer Austria Wien Aktiv 123 / 136 40% 1 17.08.2026 -